sensor_id;sensor_type;location;lat;lon;timestamp;pressure;altitude;pressure_sealevel;temperature;humidity
41062;BME280;26812;42.662;23.352;2024-01-30T00:00:40;96849.28;;;0.74;57.82
41062;BME280;26812;42.662;23.352;2024-01-30T00:03:06;96857.06;;;0.43;58.30
41062;BME280;26812;42.662;23.352;2024-01-30T00:05:31;96834.81;;;0.57;57.74
41062;BME280;26812;42.662;23.352;2024-01-30T00:07:57;96853.94;;;0.79;56.54
41062;BME280;26812;42.662;23.352;2024-01-30T00:10:22;96847.88;;;0.58;57.09
41062;BME280;26812;42.662;23.352;2024-01-30T00:12:48;96847.28;;;0.30;58.70
41062;BME280;26812;42.662;23.352;2024-01-30T00:15:13;96852.41;;;0.38;58.36
41062;BME280;26812;42.662;23.352;2024-01-30T00:17:38;96837.09;;;0.34;58.24
41062;BME280;26812;42.662;23.352;2024-01-30T00:20:04;96856.66;;;0.46;58.97
41062;BME280;26812;42.662;23.352;2024-01-30T00:22:33;96860.72;;;0.68;58.54
41062;BME280;26812;42.662;23.352;2024-01-30T00:24:58;96841.34;;;0.68;57.04
41062;BME280;26812;42.662;23.352;2024-01-30T00:27:24;96849.31;;;0.54;57.49
41062;BME280;26812;42.662;23.352;2024-01-30T00:29:49;96862.16;;;0.51;58.26
41062;BME280;26812;42.662;23.352;2024-01-30T00:32:15;96859.94;;;0.28;58.40
41062;BME280;26812;42.662;23.352;2024-01-30T00:34:41;96866.03;;;-0.05;59.99
41062;BME280;26812;42.662;23.352;2024-01-30T00:37:07;96857.72;;;0.32;60.30
41062;BME280;26812;42.662;23.352;2024-01-30T00:39:32;96862.16;;;0.51;58.37
41062;BME280;26812;42.662;23.352;2024-01-30T00:41:58;96850.56;;;0.06;59.48
41062;BME280;26812;42.662;23.352;2024-01-30T00:44:23;96847.50;;;0.02;60.40
41062;BME280;26812;42.662;23.352;2024-01-30T00:46:49;96851.97;;;0.21;59.51
41062;BME280;26812;42.662;23.352;2024-01-30T00:49:14;96844.19;;;0.59;58.41
41062;BME280;26812;42.662;23.352;2024-01-30T00:51:40;96858.09;;;0.22;59.81
41062;BME280;26812;42.662;23.352;2024-01-30T00:54:05;96846.47;;;0.29;60.30
41062;BME280;26812;42.662;23.352;2024-01-30T00:56:31;96862.75;;;0.59;59.11
41062;BME280;26812;42.662;23.352;2024-01-30T00:58:57;96854.84;;;0.33;58.98
41062;BME280;26812;42.662;23.352;2024-01-30T01:01:22;96853.63;;;0.16;59.73
41062;BME280;26812;42.662;23.352;2024-01-30T01:03:48;96858.53;;;0.06;59.83
41062;BME280;26812;42.662;23.352;2024-01-30T01:06:13;96852.56;;;-0.23;61.31
41062;BME280;26812;42.662;23.352;2024-01-30T01:08:39;96856.66;;;-0.07;61.69
41062;BME280;26812;42.662;23.352;2024-01-30T01:11:05;96843.19;;;-0.12;60.85
41062;BME280;26812;42.662;23.352;2024-01-30T01:13:30;96847.28;;;-0.10;61.41
41062;BME280;26812;42.662;23.352;2024-01-30T01:15:56;96850.94;;;-0.17;61.68
41062;BME280;26812;42.662;23.352;2024-01-30T01:18:21;96859.91;;;-0.25;61.99
41062;BME280;26812;42.662;23.352;2024-01-30T01:20:47;96855.81;;;-0.27;61.94
41062;BME280;26812;42.662;23.352;2024-01-30T01:23:12;96856.25;;;-0.17;61.82
41062;BME280;26812;42.662;23.352;2024-01-30T01:25:38;96851.75;;;-0.23;62.12
41062;BME280;26812;42.662;23.352;2024-01-30T01:28:03;96789.94;;;-0.64;62.46
41062;BME280;26812;42.662;23.352;2024-01-30T01:30:29;96816.31;;;-0.22;61.70
41062;BME280;26812;42.662;23.352;2024-01-30T01:32:55;96850.75;;;0.37;60.59
41062;BME280;26812;42.662;23.352;2024-01-30T01:35:22;96819.38;;;0.01;60.61
41062;BME280;26812;42.662;23.352;2024-01-30T01:37:50;96853.63;;;0.36;59.73
41062;BME280;26812;42.662;23.352;2024-01-30T01:40:23;96845.25;;;0.12;60.34
41062;BME280;26812;42.662;23.352;2024-01-30T01:42:53;96811.81;;;-0.28;61.66
41062;BME280;26812;42.662;23.352;2024-01-30T01:45:20;96863.81;;;0.19;60.84
41062;BME280;26812;42.662;23.352;2024-01-30T01:47:48;96825.88;;;-0.08;61.13
41062;BME280;26812;42.662;23.352;2024-01-30T01:50:15;96864.59;;;-0.01;60.98
41062;BME280;26812;42.662;23.352;2024-01-30T01:52:45;96860.94;;;-0.06;61.52
41062;BME280;26812;42.662;23.352;2024-01-30T01:55:12;96853.59;;;-0.11;61.30
41062;BME280;26812;42.662;23.352;2024-01-30T01:57:38;96819.94;;;-0.37;61.92
41062;BME280;26812;42.662;23.352;2024-01-30T02:00:07;96783.63;;;-0.69;62.11
41062;BME280;26812;42.662;23.352;2024-01-30T02:02:35;96853.59;;;-0.11;61.53
41062;BME280;26812;42.662;23.352;2024-01-30T02:05:01;96866.63;;;-0.09;61.97
41062;BME280;26812;42.662;23.352;2024-01-30T02:07:27;96871.56;;;0.01;61.64
41062;BME280;26812;42.662;23.352;2024-01-30T02:09:53;96871.53;;;-0.13;61.52
41062;BME280;26812;42.662;23.352;2024-01-30T02:12:19;96872.28;;;-0.45;63.37
41062;BME280;26812;42.662;23.352;2024-01-30T02:14:48;96872.69;;;-0.48;64.12
41062;BME280;26812;42.662;23.352;2024-01-30T02:17:15;96869.91;;;-0.14;63.73
41062;BME280;26812;42.662;23.352;2024-01-30T02:19:40;96861.78;;;0.08;61.79
41062;BME280;26812;42.662;23.352;2024-01-30T02:22:07;96838.53;;;0.16;61.83
41062;BME280;26812;42.662;23.352;2024-01-30T02:24:33;96829.13;;;-0.06;62.23
41062;BME280;26812;42.662;23.352;2024-01-30T02:26:58;96867.06;;;0.21;61.85
41062;BME280;26812;42.662;23.352;2024-01-30T02:29:24;96855.03;;;-0.02;61.75
41062;BME280;26812;42.662;23.352;2024-01-30T02:31:49;96854.22;;;-0.09;61.99
41062;BME280;26812;42.662;23.352;2024-01-30T02:34:15;96862.38;;;0.36;61.52
41062;BME280;26812;42.662;23.352;2024-01-30T02:36:43;96840.38;;;0.09;61.35
41062;BME280;26812;42.662;23.352;2024-01-30T02:39:09;96861.53;;;0.55;59.41
41062;BME280;26812;42.662;23.352;2024-01-30T02:41:35;96859.53;;;0.24;60.22
41062;BME280;26812;42.662;23.352;2024-01-30T02:44:01;96846.91;;;0.00;62.01
41062;BME280;26812;42.662;23.352;2024-01-30T02:46:27;96856.69;;;0.33;60.60
41062;BME280;26812;42.662;23.352;2024-01-30T02:48:52;96861.16;;;0.39;60.32
41062;BME280;26812;42.662;23.352;2024-01-30T02:51:18;96866.06;;;0.42;60.80
41062;BME280;26812;42.662;23.352;2024-01-30T02:53:43;96863.59;;;0.67;59.55
41062;BME280;26812;42.662;23.352;2024-01-30T02:56:09;96857.88;;;0.56;59.49
41062;BME280;26812;42.662;23.352;2024-01-30T02:58:39;96857.25;;;0.54;58.23
41062;BME280;26812;42.662;23.352;2024-01-30T03:01:06;96858.28;;;0.67;57.77
41062;BME280;26812;42.662;23.352;2024-01-30T03:03:31;96858.47;;;0.65;57.22
41062;BME280;26812;42.662;23.352;2024-01-30T03:05:57;96853.78;;;0.60;58.34
41062;BME280;26812;42.662;23.352;2024-01-30T03:08:22;96855.19;;;0.76;57.48
41062;BME280;26812;42.662;23.352;2024-01-30T03:10:48;96856.59;;;0.79;57.55
41062;BME280;26812;42.662;23.352;2024-01-30T03:13:13;96850.44;;;0.98;56.55
41062;BME280;26812;42.662;23.352;2024-01-30T03:15:39;96854.69;;;1.06;56.17
41062;BME280;26812;42.662;23.352;2024-01-30T03:18:04;96852.34;;;0.71;56.07
41062;BME280;26812;42.662;23.352;2024-01-30T03:20:30;96857.25;;;0.61;57.09
41062;BME280;26812;42.662;23.352;2024-01-30T03:22:55;96855.78;;;0.85;55.50
41062;BME280;26812;42.662;23.352;2024-01-30T03:25:21;96854.78;;;0.79;55.37
41062;BME280;26812;42.662;23.352;2024-01-30T03:27:47;96833.22;;;0.29;56.44
41062;BME280;26812;42.662;23.352;2024-01-30T03:30:12;96828.31;;;0.26;57.21
41062;BME280;26812;42.662;23.352;2024-01-30T03:32:38;96858.09;;;0.42;57.58
41062;BME280;26812;42.662;23.352;2024-01-30T03:35:03;96849.34;;;0.35;57.44
41062;BME280;26812;42.662;23.352;2024-01-30T03:37:29;96846.25;;;0.51;57.66
41062;BME280;26812;42.662;23.352;2024-01-30T03:39:55;96837.06;;;0.47;57.23
41062;BME280;26812;42.662;23.352;2024-01-30T03:42:20;96845.94;;;0.99;54.23
41062;BME280;26812;42.662;23.352;2024-01-30T03:44:46;96834.38;;;0.73;56.05
41062;BME280;26812;42.662;23.352;2024-01-30T03:47:11;96842.28;;;0.86;56.91
41062;BME280;26812;42.662;23.352;2024-01-30T03:49:37;96834.38;;;0.73;56.87
41062;BME280;26812;42.662;23.352;2024-01-30T03:52:02;96836.88;;;0.48;57.04
41062;BME280;26812;42.662;23.352;2024-01-30T03:54:28;96837.88;;;0.54;57.43
41062;BME280;26812;42.662;23.352;2024-01-30T03:56:53;96840.53;;;0.47;59.48
41062;BME280;26812;42.662;23.352;2024-01-30T03:59:19;96830.06;;;0.92;56.91
41062;BME280;26812;42.662;23.352;2024-01-30T04:01:49;96828.81;;;0.95;55.97
41062;BME280;26812;42.662;23.352;2024-01-30T04:04:15;96834.00;;;0.56;57.09
41062;BME280;26812;42.662;23.352;2024-01-30T04:06:40;96827.53;;;0.33;59.55
41062;BME280;26812;42.662;23.352;2024-01-30T04:09:06;96830.47;;;0.82;58.18
41062;BME280;26812;42.662;23.352;2024-01-30T04:11:31;96826.00;;;0.76;56.90
41062;BME280;26812;42.662;23.352;2024-01-30T04:13:56;96838.66;;;0.61;56.43
41062;BME280;26812;42.662;23.352;2024-01-30T04:16:22;96829.31;;;0.52;57.84
41062;BME280;26812;42.662;23.352;2024-01-30T04:18:48;96827.50;;;0.19;59.71
41062;BME280;26812;42.662;23.352;2024-01-30T04:21:14;96827.72;;;0.31;59.27
41062;BME280;26812;42.662;23.352;2024-01-30T04:23:42;96807.97;;;0.01;58.73
41062;BME280;26812;42.662;23.352;2024-01-30T04:26:07;96836.28;;;0.20;58.74
41062;BME280;26812;42.662;23.352;2024-01-30T04:28:33;96840.78;;;0.33;58.22
41062;BME280;26812;42.662;23.352;2024-01-30T04:30:58;96836.91;;;0.35;58.43
41062;BME280;26812;42.662;23.352;2024-01-30T04:33:24;96846.06;;;0.46;58.47
41062;BME280;26812;42.662;23.352;2024-01-30T04:35:49;96836.00;;;0.74;57.76
41062;BME280;26812;42.662;23.352;2024-01-30T04:38:15;96847.41;;;0.95;57.85
41062;BME280;26812;42.662;23.352;2024-01-30T04:40:40;96849.03;;;0.89;57.15
41062;BME280;26812;42.662;23.352;2024-01-30T04:43:06;96847.66;;;0.60;56.53
41062;BME280;26812;42.662;23.352;2024-01-30T04:45:31;96844.84;;;0.35;57.66
41062;BME280;26812;42.662;23.352;2024-01-30T04:47:57;96846.47;;;0.29;57.54
41062;BME280;26812;42.662;23.352;2024-01-30T04:50:23;96854.25;;;0.31;58.20
41062;BME280;26812;42.662;23.352;2024-01-30T04:52:48;96819.94;;;0.29;57.17
41062;BME280;26812;42.662;23.352;2024-01-30T04:55:14;96852.34;;;0.71;56.60
41062;BME280;26812;42.662;23.352;2024-01-30T04:57:39;96863.78;;;0.58;57.22
41062;BME280;26812;42.662;23.352;2024-01-30T05:00:06;96865.00;;;0.56;56.84
41062;BME280;26812;42.662;23.352;2024-01-30T05:02:31;96868.28;;;0.51;57.22
41062;BME280;26812;42.662;23.352;2024-01-30T05:04:57;96860.53;;;0.50;57.01
41062;BME280;26812;42.662;23.352;2024-01-30T05:07:24;96871.97;;;0.30;57.47
41062;BME280;26812;42.662;23.352;2024-01-30T05:09:50;96865.22;;;0.28;57.67
41062;BME280;26812;42.662;23.352;2024-01-30T05:12:15;96877.88;;;0.13;58.61
41062;BME280;26812;42.662;23.352;2024-01-30T05:14:41;96867.91;;;0.08;58.04
41062;BME280;26812;42.662;23.352;2024-01-30T05:17:06;96866.88;;;0.16;58.29
41062;BME280;26812;42.662;23.352;2024-01-30T05:19:33;96864.63;;;0.39;56.21
41062;BME280;26812;42.662;23.352;2024-01-30T05:21:58;96864.63;;;0.19;55.75
41062;BME280;26812;42.662;23.352;2024-01-30T05:24:23;96863.59;;;0.20;55.55
41062;BME280;26812;42.662;23.352;2024-01-30T05:26:49;96872.38;;;0.27;54.84
41062;BME280;26812;42.662;23.352;2024-01-30T05:29:16;96857.69;;;0.05;55.28
41062;BME280;26812;42.662;23.352;2024-01-30T05:31:42;96863.19;;;-0.03;55.56
41062;BME280;26812;42.662;23.352;2024-01-30T05:34:07;96878.69;;;0.07;56.81
41062;BME280;26812;42.662;23.352;2024-01-30T05:36:34;96872.78;;;0.11;55.77
41062;BME280;26812;42.662;23.352;2024-01-30T05:38:59;96864.81;;;-0.02;56.54
41062;BME280;26812;42.662;23.352;2024-01-30T05:41:25;96838.31;;;-0.28;57.38
41062;BME280;26812;42.662;23.352;2024-01-30T05:43:50;96870.66;;;-0.46;58.28
41062;BME280;26812;42.662;23.352;2024-01-30T05:46:16;96877.97;;;-0.48;58.86
41062;BME280;26812;42.662;23.352;2024-01-30T05:48:41;96875.59;;;-0.17;58.09
41062;BME280;26812;42.662;23.352;2024-01-30T05:51:07;96876.03;;;0.07;56.62
41062;BME280;26812;42.662;23.352;2024-01-30T05:53:33;96879.31;;;0.02;57.19
41062;BME280;26812;42.662;23.352;2024-01-30T05:56:01;96883.97;;;-0.13;57.47
41062;BME280;26812;42.662;23.352;2024-01-30T05:58:27;96876.81;;;-0.26;57.87
41062;BME280;26812;42.662;23.352;2024-01-30T06:00:52;96869.63;;;-0.45;59.13
41062;BME280;26812;42.662;23.352;2024-01-30T06:03:18;96867.00;;;-0.39;59.33
41062;BME280;26812;42.662;23.352;2024-01-30T06:05:43;96850.25;;;-0.59;59.36
41062;BME280;26812;42.662;23.352;2024-01-30T06:08:09;96873.72;;;-0.36;59.10
41062;BME280;26812;42.662;23.352;2024-01-30T06:10:34;96884.56;;;-0.24;57.93
41062;BME280;26812;42.662;23.352;2024-01-30T06:12:59;96884.16;;;-0.21;58.07
41062;BME280;26812;42.662;23.352;2024-01-30T06:15:25;96869.84;;;-0.40;58.46
41062;BME280;26812;42.662;23.352;2024-01-30T06:17:51;96879.91;;;0.11;57.29
41062;BME280;26812;42.662;23.352;2024-01-30T06:20:17;96838.88;;;-0.46;57.75
41062;BME280;26812;42.662;23.352;2024-01-30T06:22:43;96870.84;;;-0.41;59.08
41062;BME280;26812;42.662;23.352;2024-01-30T06:25:08;96884.72;;;-0.33;59.07
41062;BME280;26812;42.662;23.352;2024-01-30T06:27:34;96885.53;;;-0.32;58.99
41062;BME280;26812;42.662;23.352;2024-01-30T06:29:59;96876.97;;;-0.34;59.29
41062;BME280;26812;42.662;23.352;2024-01-30T06:32:25;96868.91;;;0.07;57.28
41062;BME280;26812;42.662;23.352;2024-01-30T06:34:50;96887.25;;;0.15;57.76
41062;BME280;26812;42.662;23.352;2024-01-30T06:37:16;96841.94;;;-0.36;58.55
41062;BME280;26812;42.662;23.352;2024-01-30T06:39:41;96879.06;;;-0.16;58.76
41062;BME280;26812;42.662;23.352;2024-01-30T06:42:06;96885.78;;;-0.14;58.88
41062;BME280;26812;42.662;23.352;2024-01-30T06:44:32;96887.25;;;0.15;58.67
41062;BME280;26812;42.662;23.352;2024-01-30T06:46:57;96881.53;;;-0.08;59.25
41062;BME280;26812;42.662;23.352;2024-01-30T06:49:23;96887.63;;;-0.08;60.00
41062;BME280;26812;42.662;23.352;2024-01-30T06:51:48;96891.34;;;0.51;57.61
41062;BME280;26812;42.662;23.352;2024-01-30T06:54:13;96889.28;;;0.53;56.59
41062;BME280;26812;42.662;23.352;2024-01-30T06:56:39;96879.69;;;0.52;55.93
41062;BME280;26812;42.662;23.352;2024-01-30T06:59:04;96892.78;;;0.34;56.91
41062;BME280;26812;42.662;23.352;2024-01-30T07:01:30;96899.50;;;0.49;56.87
41062;BME280;26812;42.662;23.352;2024-01-30T07:03:56;96895.00;;;0.63;54.09
41062;BME280;26812;42.662;23.352;2024-01-30T07:06:21;96904.34;;;0.85;51.81
41062;BME280;26812;42.662;23.352;2024-01-30T07:08:48;96905.09;;;1.26;49.86
41062;BME280;26812;42.662;23.352;2024-01-30T07:11:20;96891.72;;;0.81;50.26
41062;BME280;26812;42.662;23.352;2024-01-30T07:13:48;96892.97;;;0.65;53.16
41062;BME280;26812;42.662;23.352;2024-01-30T07:16:14;96908.41;;;1.01;53.40
41062;BME280;26812;42.662;23.352;2024-01-30T07:18:39;96892.50;;;0.88;52.82
41062;BME280;26812;42.662;23.352;2024-01-30T07:21:05;96896.81;;;1.47;49.62
41062;BME280;26812;42.662;23.352;2024-01-30T07:23:30;96896.00;;;2.47;47.45
41062;BME280;26812;42.662;23.352;2024-01-30T07:25:56;96894.59;;;4.63;40.33
41062;BME280;26812;42.662;23.352;2024-01-30T07:28:21;96890.88;;;6.03;37.38
41062;BME280;26812;42.662;23.352;2024-01-30T07:30:47;96870.72;;;7.34;35.21
41062;BME280;26812;42.662;23.352;2024-01-30T07:33:13;96896.53;;;7.19;35.71
41062;BME280;26812;42.662;23.352;2024-01-30T07:35:39;96893.41;;;9.05;32.24
41062;BME280;26812;42.662;23.352;2024-01-30T07:38:04;96892.16;;;9.70;30.65
41062;BME280;26812;42.662;23.352;2024-01-30T07:40:29;96888.25;;;9.41;30.26
41062;BME280;26812;42.662;23.352;2024-01-30T07:42:55;96891.53;;;9.06;30.48
41062;BME280;26812;42.662;23.352;2024-01-30T07:45:20;96892.38;;;9.58;30.19
41062;BME280;26812;42.662;23.352;2024-01-30T07:47:50;96884.44;;;9.89;29.75
41062;BME280;26812;42.662;23.352;2024-01-30T07:50:16;96890.50;;;10.37;28.60
41062;BME280;26812;42.662;23.352;2024-01-30T07:52:42;96890.44;;;10.11;28.02
41062;BME280;26812;42.662;23.352;2024-01-30T07:55:08;96873.53;;;8.37;30.36
41062;BME280;26812;42.662;23.352;2024-01-30T07:57:34;96879.13;;;9.47;29.88
41062;BME280;26812;42.662;23.352;2024-01-30T08:00:00;96891.41;;;9.80;28.79
41062;BME280;26812;42.662;23.352;2024-01-30T08:02:25;96887.63;;;8.54;31.73
41062;BME280;26812;42.662;23.352;2024-01-30T08:04:51;96881.03;;;8.35;31.22
41062;BME280;26812;42.662;23.352;2024-01-30T08:07:16;96881.28;;;8.97;30.42
41062;BME280;26812;42.662;23.352;2024-01-30T08:09:43;96885.41;;;10.71;28.88
41062;BME280;26812;42.662;23.352;2024-01-30T08:12:09;96884.00;;;12.14;26.25
41062;BME280;26812;42.662;23.352;2024-01-30T08:14:34;96882.16;;;12.88;25.22
41062;BME280;26812;42.662;23.352;2024-01-30T08:16:59;96873.16;;;11.49;26.01
41062;BME280;26812;42.662;23.352;2024-01-30T08:19:25;96871.78;;;6.95;32.02
41062;BME280;26812;42.662;23.352;2024-01-30T08:21:50;96874.16;;;8.22;31.70
41062;BME280;26812;42.662;23.352;2024-01-30T08:24:16;96878.34;;;9.04;30.57
41062;BME280;26812;42.662;23.352;2024-01-30T08:26:41;96882.03;;;10.08;29.02
41062;BME280;26812;42.662;23.352;2024-01-30T08:29:07;96878.53;;;11.60;26.35
41062;BME280;26812;42.662;23.352;2024-01-30T08:31:33;96883.69;;;11.51;27.03
41062;BME280;26812;42.662;23.352;2024-01-30T08:33:58;96878.31;;;12.16;26.80
41062;BME280;26812;42.662;23.352;2024-01-30T08:36:25;96876.09;;;12.67;24.90
41062;BME280;26812;42.662;23.352;2024-01-30T08:38:51;96888.09;;;13.72;24.11
41062;BME280;26812;42.662;23.352;2024-01-30T08:41:16;96890.09;;;14.51;22.60
41062;BME280;26812;42.662;23.352;2024-01-30T08:43:42;96888.78;;;14.49;22.84
41062;BME280;26812;42.662;23.352;2024-01-30T08:46:07;96887.56;;;13.46;24.45
41062;BME280;26812;42.662;23.352;2024-01-30T08:48:32;96891.41;;;13.92;23.30
41062;BME280;26812;42.662;23.352;2024-01-30T08:50:58;96893.63;;;15.49;22.14
41062;BME280;26812;42.662;23.352;2024-01-30T08:53:23;96895.53;;;14.09;22.51
41062;BME280;26812;42.662;23.352;2024-01-30T08:55:49;96898.19;;;13.08;25.03
41062;BME280;26812;42.662;23.352;2024-01-30T08:58:15;96900.41;;;11.58;25.67
41062;BME280;26812;42.662;23.352;2024-01-30T09:00:43;96906.66;;;9.64;28.34
41062;BME280;26812;42.662;23.352;2024-01-30T09:03:08;96872.22;;;8.18;30.47
41062;BME280;26812;42.662;23.352;2024-01-30T09:05:34;96899.41;;;8.48;29.67
41062;BME280;26812;42.662;23.352;2024-01-30T09:07:59;96899.34;;;6.57;32.84
41062;BME280;26812;42.662;23.352;2024-01-30T09:10:25;96890.63;;;7.60;32.37
41062;BME280;26812;42.662;23.352;2024-01-30T09:12:50;96888.31;;;8.39;31.30
41062;BME280;26812;42.662;23.352;2024-01-30T09:15:16;96892.50;;;6.66;32.09
41062;BME280;26812;42.662;23.352;2024-01-30T09:17:41;96895.47;;;6.19;34.25
41062;BME280;26812;42.662;23.352;2024-01-30T09:20:07;96888.59;;;8.16;31.99
41062;BME280;26812;42.662;23.352;2024-01-30T09:22:34;96879.41;;;10.18;29.53
41062;BME280;26812;42.662;23.352;2024-01-30T09:24:59;96862.97;;;11.36;27.82
41062;BME280;26812;42.662;23.352;2024-01-30T09:27:25;96878.38;;;11.20;27.42
41062;BME280;26812;42.662;23.352;2024-01-30T09:29:50;96879.78;;;12.42;25.81
41062;BME280;26812;42.662;23.352;2024-01-30T09:32:16;96874.91;;;13.65;24.72
41062;BME280;26812;42.662;23.352;2024-01-30T09:34:43;96871.28;;;13.75;23.45
41062;BME280;26812;42.662;23.352;2024-01-30T09:37:08;96870.25;;;13.47;23.92
41062;BME280;26812;42.662;23.352;2024-01-30T09:39:33;96873.78;;;14.14;22.70
41062;BME280;26812;42.662;23.352;2024-01-30T09:42:12;96872.94;;;14.75;22.89
41062;BME280;26812;42.662;23.352;2024-01-30T09:44:43;96865.34;;;16.69;21.34
41062;BME280;26812;42.662;23.352;2024-01-30T09:47:10;96862.66;;;16.55;21.16
41062;BME280;26812;42.662;23.352;2024-01-30T09:49:36;96872.88;;;14.94;22.60
41062;BME280;26812;42.662;23.352;2024-01-30T09:52:05;96869.97;;;12.51;25.36
41062;BME280;26812;42.662;23.352;2024-01-30T09:54:31;96844.97;;;10.61;28.22
41062;BME280;26812;42.662;23.352;2024-01-30T09:56:57;96861.13;;;10.35;28.36
41062;BME280;26812;42.662;23.352;2024-01-30T09:59:23;96844.03;;;9.21;29.62
41062;BME280;26812;42.662;23.352;2024-01-30T10:01:50;96870.34;;;8.77;30.76
41062;BME280;26812;42.662;23.352;2024-01-30T10:04:15;96860.22;;;8.25;31.43
41062;BME280;26812;42.662;23.352;2024-01-30T10:06:41;96855.50;;;7.84;32.33
41062;BME280;26812;42.662;23.352;2024-01-30T10:09:07;96824.41;;;7.17;33.17
41062;BME280;26812;42.662;23.352;2024-01-30T10:11:33;96847.78;;;6.83;34.49
41062;BME280;26812;42.662;23.352;2024-01-30T10:14:00;96854.56;;;7.07;33.94
41062;BME280;26812;42.662;23.352;2024-01-30T10:16:25;96854.69;;;7.83;33.81
41062;BME280;26812;42.662;23.352;2024-01-30T10:18:50;96859.00;;;7.84;33.23
41062;BME280;26812;42.662;23.352;2024-01-30T10:21:16;96858.00;;;8.44;32.52
41062;BME280;26812;42.662;23.352;2024-01-30T10:23:43;96850.53;;;9.98;30.05
41062;BME280;26812;42.662;23.352;2024-01-30T10:26:12;96829.75;;;11.31;28.64
41062;BME280;26812;42.662;23.352;2024-01-30T10:28:39;96846.56;;;10.26;28.49
41062;BME280;26812;42.662;23.352;2024-01-30T10:31:04;96853.59;;;11.88;27.41
41062;BME280;26812;42.662;23.352;2024-01-30T10:33:30;96849.75;;;14.26;24.45
41062;BME280;26812;42.662;23.352;2024-01-30T10:36:04;96853.81;;;15.59;22.76
41062;BME280;26812;42.662;23.352;2024-01-30T10:38:31;96857.41;;;17.26;21.54
41062;BME280;26812;42.662;23.352;2024-01-30T10:40:58;96831.72;;;17.89;19.65
41062;BME280;26812;42.662;23.352;2024-01-30T10:43:46;96855.31;;;17.62;20.04
41062;BME280;26812;42.662;23.352;2024-01-30T10:46:19;96842.47;;;17.94;20.22
41062;BME280;26812;42.662;23.352;2024-01-30T10:49:05;96815.34;;;17.80;20.15
41062;BME280;26812;42.662;23.352;2024-01-30T10:51:32;96844.66;;;18.40;18.87
41062;BME280;26812;42.662;23.352;2024-01-30T10:53:59;96841.38;;;18.04;19.29
41062;BME280;26812;42.662;23.352;2024-01-30T10:56:25;96825.41;;;17.71;19.91
41062;BME280;26812;42.662;23.352;2024-01-30T10:58:52;96833.34;;;14.74;22.26
41062;BME280;26812;42.662;23.352;2024-01-30T11:01:21;96835.47;;;13.59;24.55
41062;BME280;26812;42.662;23.352;2024-01-30T11:03:53;96828.34;;;14.24;23.21
41062;BME280;26812;42.662;23.352;2024-01-30T11:06:22;96823.75;;;14.25;23.47
41062;BME280;26812;42.662;23.352;2024-01-30T11:09:04;96801.75;;;13.46;23.81
41062;BME280;26812;42.662;23.352;2024-01-30T11:11:56;96813.84;;;11.39;26.63
41062;BME280;26812;42.662;23.352;2024-01-30T11:14:29;96792.13;;;9.21;30.15
41062;BME280;26812;42.662;23.352;2024-01-30T11:16:58;96808.56;;;8.40;31.67
41062;BME280;26812;42.662;23.352;2024-01-30T11:19:25;96813.31;;;8.06;31.66
41062;BME280;26812;42.662;23.352;2024-01-30T11:21:52;96788.59;;;7.28;33.96
41062;BME280;26812;42.662;23.352;2024-01-30T11:24:20;96818.94;;;8.31;32.83
41062;BME280;26812;42.662;23.352;2024-01-30T11:26:57;96804.31;;;8.49;32.06
41062;BME280;26812;42.662;23.352;2024-01-30T11:29:27;96808.19;;;8.31;31.84
41062;BME280;26812;42.662;23.352;2024-01-30T11:31:58;96809.81;;;7.30;33.50
41062;BME280;26812;42.662;23.352;2024-01-30T11:34:24;96801.28;;;6.56;34.61
41062;BME280;26812;42.662;23.352;2024-01-30T11:37:09;96793.13;;;6.29;35.32
41062;BME280;26812;42.662;23.352;2024-01-30T11:39:37;96815.50;;;6.22;35.62
41062;BME280;26812;42.662;23.352;2024-01-30T11:42:03;96810.81;;;6.13;36.18
41062;BME280;26812;42.662;23.352;2024-01-30T11:44:30;96800.56;;;6.10;36.47
41062;BME280;26812;42.662;23.352;2024-01-30T11:46:56;96811.38;;;6.15;37.17
41062;BME280;26812;42.662;23.352;2024-01-30T11:49:21;96786.25;;;5.87;36.29
41062;BME280;26812;42.662;23.352;2024-01-30T11:51:48;96776.00;;;5.39;37.33
41062;BME280;26812;42.662;23.352;2024-01-30T11:54:15;96808.63;;;5.53;37.22
41062;BME280;26812;42.662;23.352;2024-01-30T11:56:41;96798.38;;;5.21;38.02
41062;BME280;26812;42.662;23.352;2024-01-30T11:59:07;96786.25;;;5.30;38.06
41062;BME280;26812;42.662;23.352;2024-01-30T12:01:32;96785.66;;;6.14;36.44
41062;BME280;26812;42.662;23.352;2024-01-30T12:03:59;96772.78;;;6.66;35.87
41062;BME280;26812;42.662;23.352;2024-01-30T12:06:24;96771.09;;;8.60;32.73
41062;BME280;26812;42.662;23.352;2024-01-30T12:09:00;96779.97;;;9.86;30.82
41062;BME280;26812;42.662;23.352;2024-01-30T12:11:26;96776.28;;;11.48;28.65
41062;BME280;26812;42.662;23.352;2024-01-30T12:13:53;96761.47;;;13.21;26.25
41062;BME280;26812;42.662;23.352;2024-01-30T12:16:19;96773.44;;;13.10;26.03
41062;BME280;26812;42.662;23.352;2024-01-30T12:18:45;96757.09;;;14.43;24.05
41062;BME280;26812;42.662;23.352;2024-01-30T12:21:10;96758.69;;;16.89;21.26
41062;BME280;26812;42.662;23.352;2024-01-30T12:23:36;96765.78;;;17.78;20.67
41062;BME280;26812;42.662;23.352;2024-01-30T12:26:01;96758.56;;;17.34;20.19
41062;BME280;26812;42.662;23.352;2024-01-30T12:28:29;96730.56;;;17.02;20.39
41062;BME280;26812;42.662;23.352;2024-01-30T12:31:02;96757.78;;;17.42;20.08
41062;BME280;26812;42.662;23.352;2024-01-30T12:33:28;96750.56;;;16.67;20.86
41062;BME280;26812;42.662;23.352;2024-01-30T12:35:54;96725.50;;;14.79;22.78
41062;BME280;26812;42.662;23.352;2024-01-30T12:38:20;96740.44;;;17.78;20.21
41062;BME280;26812;42.662;23.352;2024-01-30T12:40:45;96727.94;;;19.57;17.91
41062;BME280;26812;42.662;23.352;2024-01-30T12:43:13;96737.25;;;19.85;17.32
41062;BME280;26812;42.662;23.352;2024-01-30T12:45:39;96740.47;;;18.29;18.86
41062;BME280;26812;42.662;23.352;2024-01-30T12:48:05;96733.97;;;17.65;19.51
41062;BME280;26812;42.662;23.352;2024-01-30T12:50:30;96733.50;;;21.30;17.38